Time;durP1;ratioP1;P1;durP2;ratioP2;P2;SDS_P1;SDS_P2;PMS_P1;PMS_P2;Temp;Humidity;BMP_temperature;BMP_pressure;BME280_temperature;BME280_humidity;BME280_pressure;Samples;Min_cycle;Max_cycle;Signal;HPM_P1;HPM_P2
2021/04/21 00:01:40;;;;;;;46.72;25.15;;;;;;;13.63;56.50;101829.13;5069558;28;20082;-84
2021/04/21 00:04:09;;;;;;;32.05;21.05;;;;;;;13.63;56.24;101823.78;5065900;28;20120;-84
2021/04/21 00:06:38;;;;;;;42.03;24.90;;;;;;;13.59;56.36;101821.19;5066825;28;20021;-85
2021/04/21 00:09:08;;;;;;;36.65;23.05;;;;;;;13.57;56.66;101830.09;5069030;28;20023;-84
2021/04/21 00:11:35;;;;;;;40.88;25.15;;;;;;;13.52;56.17;101831.94;5057671;28;20438;-85
2021/04/21 00:14:01;;;;;;;42.88;22.15;;;;;;;13.49;56.02;101832.03;5069233;28;20025;-84
2021/04/21 00:16:32;;;;;;;41.33;25.25;;;;;;;13.48;56.26;101824.94;5073797;28;20037;-85
2021/04/21 00:19:00;;;;;;;37.35;23.88;;;;;;;13.44;56.40;101824.09;5072700;28;20032;-85
2021/04/21 00:21:27;;;;;;;40.78;23.35;;;;;;;13.41;56.91;101832.16;5086556;28;20028;-84
2021/04/21 00:23:54;;;;;;;38.55;23.95;;;;;;;13.34;56.38;101825.13;5084003;28;20073;-85
2021/04/21 00:26:23;;;;;;;39.63;23.88;;;;;;;13.37;56.20;101825.06;5067536;28;20029;-85
2021/04/21 00:28:52;;;;;;;40.42;23.60;;;;;;;13.34;56.49;101827.78;5072888;28;20029;-84
2021/04/21 00:31:22;;;;;;;39.30;23.98;;;;;;;13.30;56.63;101826.09;5073381;28;20025;-82
2021/04/21 00:33:54;;;;;;;40.85;24.25;;;;;;;13.30;55.96;101826.94;5085622;28;20029;-84
2021/04/21 00:36:23;;;;;;;41.15;24.10;;;;;;;13.22;56.97;101834.16;5078245;28;20028;-82
2021/04/21 00:38:51;;;;;;;39.28;24.15;;;;;;;13.20;56.31;101828.88;5067047;28;20036;-83
2021/04/21 00:47:31;;;;;;;39.95;23.48;;;;;;;13.20;56.23;101830.66;5134715;27;20642;-84
2021/04/21 00:53:12;;;;;;;40.08;23.45;;;;;;;13.07;57.03;101824.63;5075605;27;20402;-84
2021/04/21 00:58:49;;;;;;;40.50;23.08;;;;;;;13.13;56.75;101827.19;5078726;27;20846;-84
2021/04/21 01:01:17;;;;;;;36.97;22.80;;;;;;;13.02;57.21;101827.38;5063676;28;20040;-84
2021/04/21 01:03:45;;;;;;;46.97;23.67;;;;;;;13.00;56.76;101829.16;5069753;28;20021;-84
2021/04/21 01:06:18;;;;;;;36.33;22.23;;;;;;;12.97;57.33;101828.34;5065160;28;20060;-84
2021/04/21 01:08:50;;;;;;;36.83;21.80;;;;;;;12.97;57.20;101831.84;5052867;28;20029;-84
2021/04/21 01:11:30;;;;;;;37.90;21.85;;;;;;;12.97;57.02;101823.00;5042713;28;20115;-84
2021/04/21 01:14:00;;;;;;;41.85;25.42;;;;;;;12.92;57.12;101826.63;5065017;28;20028;-84
2021/04/21 01:16:31;;;;;;;40.85;23.60;;;;;;;12.92;57.29;101823.06;5056488;28;20028;-84
2021/04/21 01:19:01;;;;;;;42.53;23.75;;;;;;;12.88;57.17;101830.22;5059899;28;20079;-84
2021/04/21 01:21:42;;;;;;;37.30;21.98;;;;;;;12.90;57.34;101823.09;5060685;28;20016;-83
2021/04/21 01:24:17;;;;;;;37.97;22.88;;;;;;;12.88;57.20;101824.03;5044563;28;20075;-84
2021/04/21 01:26:57;;;;;;;35.38;21.20;;;;;;;12.89;56.98;101817.81;5051272;28;20056;-83
2021/04/21 01:29:46;;;;;;;37.53;22.75;;;;;;;12.84;57.23;101822.31;5042109;28;20041;-83
2021/04/21 01:32:16;;;;;;;40.75;24.73;;;;;;;12.80;56.82;101821.47;5061170;28;20048;-83
2021/04/21 01:34:44;;;;;;;39.45;22.48;;;;;;;12.77;57.12;101821.50;5055363;28;20032;-84
2021/04/21 01:37:16;;;;;;;41.45;23.88;;;;;;;12.76;57.36;101820.63;5054125;28;20040;-84
2021/04/21 01:39:48;;;;;;;39.20;23.25;;;;;;;12.75;57.08;101823.31;5056559;28;20036;-84
2021/04/21 01:42:17;;;;;;;41.88;26.10;;;;;;;12.73;57.14;101815.34;5064415;28;20040;-84
2021/04/21 01:44:48;;;;;;;45.15;27.55;;;;;;;12.73;57.95;101822.44;5057329;28;20109;-84
2021/04/21 01:47:20;;;;;;;37.08;22.88;;;;;;;12.69;57.54;101816.28;5057851;28;20028;-84
2021/04/21 01:50:06;;;;;;;35.47;23.45;;;;;;;12.76;57.12;101819.75;5050087;28;20021;-84
2021/04/21 01:58:03;;;;;;;42.85;25.10;;;;;;;12.61;58.20;101816.41;5070641;27;20425;-83
2021/04/21 02:03:28;;;;;;;39.25;25.67;;;;;;;12.58;57.94;101816.41;5070276;27;21325;-84
2021/04/21 02:08:56;;;;;;;46.42;27.48;;;;;;;12.55;57.90;101827.09;5082766;27;20389;-86
2021/04/21 02:11:25;;;;;;;46.08;26.83;;;;;;;12.45;58.18;101823.69;5055557;28;20432;-84
2021/04/21 02:14:14;;;;;;;45.10;28.27;;;;;;;12.53;57.76;101817.41;5040697;28;20029;-85
2021/04/21 02:19:56;;;;;;;48.67;29.55;;;;;;;12.41;57.95;101815.75;5110180;27;20374;-83
2021/04/21 02:22:48;;;;;;;52.63;30.02;;;;;;;12.39;57.82;101820.22;5105878;28;20039;-84
2021/04/21 02:25:44;;;;;;;45.88;28.88;;;;;;;12.32;58.94;101819.41;5075382;28;20112;-84
2021/04/21 02:28:51;;;;;;;50.10;29.50;;;;;;;12.36;58.12;101825.56;5055101;28;20031;-84
2021/04/21 02:34:47;;;;;;;50.75;31.02;;;;;;;12.20;58.96;101825.75;5053289;27;20374;-84
2021/04/21 02:37:26;;;;;;;49.63;30.33;;;;;;;12.19;58.83;101823.13;5049396;28;20071;-84
2021/04/21 02:48:42;;;;;;;51.40;29.60;;;;;;;12.13;58.74;101827.56;5079662;28;20408;-85
2021/04/21 02:51:48;;;;;;;50.95;31.77;;;;;;;12.13;58.56;101830.22;5067796;28;20041;-85
2021/04/21 02:54:38;;;;;;;47.50;29.05;;;;;;;12.12;58.84;101822.28;5065439;28;20377;-84
2021/04/21 02:57:13;;;;;;;52.13;29.92;;;;;;;12.00;58.79;101823.31;5047265;28;20022;-85
2021/04/21 03:02:33;;;;;;;55.03;32.00;;;;;;;11.95;59.18;101830.38;5075343;27;20420;-85
2021/04/21 03:05:23;;;;;;;54.33;30.17;;;;;;;11.94;59.04;101824.22;5062593;28;20405;-85
2021/04/21 03:08:06;;;;;;;50.78;30.05;;;;;;;11.89;58.97;101830.47;5043333;28;20124;-83
2021/04/21 03:10:41;;;;;;;45.92;27.50;;;;;;;11.84;58.65;101827.84;5037517;28;20446;-84
2021/04/21 03:15:52;;;;;;;47.95;29.42;;;;;;;11.81;58.61;101827.88;5068298;28;20394;-84
2021/04/21 03:18:21;;;;;;;50.53;29.67;;;;;;;11.77;58.74;101827.00;5061358;28;20045;-84
2021/04/21 03:20:53;;;;;;;44.60;28.77;;;;;;;11.79;58.71;101827.88;5062470;28;20039;-85
2021/04/21 03:23:22;;;;;;;43.47;26.73;;;;;;;11.75;58.83;101833.22;5057134;28;20112;-84
2021/04/21 03:25:52;;;;;;;44.22;27.15;;;;;;;11.74;58.76;101836.78;5066248;28;20040;-84
2021/04/21 03:28:21;;;;;;;42.42;26.95;;;;;;;11.68;58.17;101832.41;5060627;28;20472;-85
2021/04/21 03:30:52;;;;;;;42.47;26.13;;;;;;;11.67;58.60;101835.09;5067403;28;20033;-83
2021/04/21 03:33:25;;;;;;;40.47;23.30;;;;;;;11.68;58.45;101837.72;5060776;28;20063;-84
2021/04/21 03:35:53;;;;;;;39.83;24.10;;;;;;;11.66;58.32;101834.19;5060724;28;20026;-84
2021/04/21 03:38:21;;;;;;;43.60;22.05;;;;;;;11.63;58.15;101835.09;5057960;28;20029;-84
2021/04/21 03:40:48;;;;;;;38.72;22.15;;;;;;;11.63;57.84;101827.13;5061127;28;20557;-83
2021/04/21 03:43:17;;;;;;;34.67;22.38;;;;;;;11.61;57.94;101828.94;5052349;28;20041;-84
2021/04/21 03:45:47;;;;;;;38.30;22.55;;;;;;;11.65;57.57;101833.31;5048184;28;20029;-85
2021/04/21 03:48:15;;;;;;;34.78;23.45;;;;;;;11.61;57.68;101823.63;5047602;28;20052;-83
2021/04/21 03:50:43;;;;;;;37.75;21.75;;;;;;;11.62;57.80;101824.50;5047282;28;20021;-83
2021/04/21 03:53:13;;;;;;;33.47;20.88;;;;;;;11.58;57.97;101826.31;5054039;28;20040;-85
2021/04/21 03:55:40;;;;;;;37.20;21.63;;;;;;;11.56;57.74;101825.44;5060785;28;20040;-83
2021/04/21 03:58:09;;;;;;;36.10;21.85;;;;;;;11.57;57.60;101828.97;5062995;28;20155;-84
2021/04/21 04:00:39;;;;;;;31.98;19.95;;;;;;;11.58;57.56;101831.63;5048781;28;20060;-84
2021/04/21 04:03:10;;;;;;;34.67;20.15;;;;;;;11.58;57.26;101821.00;5066507;28;20502;-83
2021/04/21 04:08:42;;;;;;;39.08;20.65;;;;;;;11.52;57.23;101828.13;5090889;27;20422;-83
2021/04/21 04:11:12;;;;;;;36.08;21.35;;;;;;;11.52;57.30;101823.69;5083010;28;20048;-83
2021/04/21 04:13:42;;;;;;;31.80;17.83;;;;;;;11.48;57.04;101824.63;5085590;28;20026;-83
2021/04/21 04:16:10;;;;;;;34.97;18.67;;;;;;;11.47;56.96;101828.16;5101080;28;20069;-84
2021/04/21 04:18:39;;;;;;;36.10;18.15;;;;;;;11.41;57.18;101826.44;5099345;28;20020;-83
2021/04/21 04:21:09;;;;;;;28.92;18.50;;;;;;;11.42;57.00;101829.97;5102660;28;20122;-84
2021/04/21 04:23:38;;;;;;;31.40;19.00;;;;;;;11.37;57.11;101835.31;5095864;28;20027;-83
2021/04/21 04:26:06;;;;;;;33.57;19.60;;;;;;;11.35;56.83;101829.13;5105220;28;20482;-84
2021/04/21 04:28:35;;;;;;;38.13;17.77;;;;;;;11.37;56.76;101837.09;5100214;28;20142;-84
2021/04/21 04:31:04;;;;;;;33.67;20.02;;;;;;;11.33;57.10;101839.75;5104110;28;20093;-83
2021/04/21 04:33:31;;;;;;;32.33;18.98;;;;;;;11.29;56.98;101840.69;5095480;28;20098;-83
2021/04/21 04:35:58;;;;;;;29.17;19.23;;;;;;;11.27;56.84;101842.44;5097078;28;20391;-83
2021/04/21 04:38:25;;;;;;;41.80;21.58;;;;;;;11.26;56.98;101848.66;5104144;28;20031;-84
2021/04/21 04:40:54;;;;;;;35.08;20.77;;;;;;;11.25;57.05;101849.56;5105372;28;20062;-83
2021/04/21 04:43:23;;;;;;;36.15;21.65;;;;;;;11.25;56.94;101851.31;5094937;28;20024;-84
2021/04/21 04:45:56;;;;;;;39.88;23.42;;;;;;;11.24;57.00;101847.78;5094879;28;20383;-83
2021/04/21 04:48:33;;;;;;;37.13;23.48;;;;;;;11.25;57.17;101860.19;5097341;28;20040;-84
2021/04/21 04:51:01;;;;;;;42.95;24.17;;;;;;;11.18;57.38;101850.50;5095222;28;20483;-84
2021/04/21 04:53:29;;;;;;;43.42;24.77;;;;;;;11.19;57.34;101856.66;5089930;28;20068;-84
2021/04/21 04:55:58;;;;;;;43.50;25.08;;;;;;;11.20;57.21;101855.78;5089399;28;20074;-84
2021/04/21 04:58:27;;;;;;;46.50;25.30;;;;;;;11.20;57.29;101856.66;5085307;28;20048;-84
2021/04/21 05:00:59;;;;;;;39.53;24.73;;;;;;;11.23;57.36;101861.94;5097941;28;20021;-85
2021/04/21 05:03:28;;;;;;;36.40;23.25;;;;;;;11.20;57.30;101869.03;5089345;28;20471;-84
2021/04/21 05:05:56;;;;;;;42.40;26.90;;;;;;;11.18;57.52;101866.41;5084200;28;20082;-84
2021/04/21 05:08:44;;;;;;;42.70;24.55;;;;;;;11.27;57.30;101871.63;5092325;28;20119;-85
2021/04/21 05:11:14;;;;;;;43.40;26.23;;;;;;;11.20;57.63;101877.88;5082973;28;20024;-84
2021/04/21 05:13:47;;;;;;;45.63;28.33;;;;;;;11.24;57.46;101876.06;5076737;28;20036;-83
2021/04/21 05:25:46;;;;;;;48.17;30.98;;;;;;;11.31;58.05;101886.66;5063587;28;20409;-84
2021/04/21 05:28:43;;;;;;;48.47;31.40;;;;;;;11.32;58.06;101885.75;5011443;28;20041;-83
2021/04/21 05:37:38;;;;;;;50.22;31.85;;;;;;;11.38;58.09;101891.94;5048404;27;20418;-84
2021/04/21 05:54:46;;;;;;;54.33;35.55;;;;;;;11.60;58.26;101892.63;5114871;27;20414;-85
2021/04/21 05:57:37;;;;;;;53.08;34.13;;;;;;;11.59;58.18;101898.84;5094851;28;20509;-86
2021/04/21 06:02:57;;;;;;;51.78;35.53;;;;;;;11.59;58.21;101910.34;5075333;28;20442;-87
2021/04/21 06:05:23;;;;;;;55.35;33.00;;;;;;;11.60;58.05;101914.78;5067437;28;20041;-89
2021/04/21 06:07:49;;;;;;;54.88;32.20;;;;;;;11.64;58.21;101907.69;5047933;28;20025;-90
2021/04/21 06:13:06;;;;;;;54.00;30.75;;;;;;;11.65;57.75;101909.41;5073193;28;20454;-88
2021/04/21 06:18:12;;;;;;;49.78;30.73;;;;;;;11.75;57.47;101921.75;5053413;27;20436;-89
2021/04/21 06:20:42;;;;;;;49.75;30.20;;;;;;;11.80;57.45;101919.03;5036492;28;20500;-91
2021/04/21 06:28:42;;;;;;;50.08;29.20;;;;;;;11.95;57.34;101924.25;5111882;27;20350;-84
2021/04/21 06:33:58;;;;;;;47.70;28.10;;;;;;;12.17;57.15;101925.84;5079467;28;20440;-83
2021/04/21 06:36:33;;;;;;;48.17;28.88;;;;;;;12.23;56.62;101929.31;5062658;28;20060;-86
2021/04/21 06:39:00;;;;;;;48.17;27.92;;;;;;;12.23;56.80;101925.81;5049507;28;20450;-85
2021/04/21 06:41:27;;;;;;;44.90;29.00;;;;;;;12.40;56.38;101922.94;5049382;28;20037;-87
2021/04/21 06:43:56;;;;;;;42.53;27.98;;;;;;;12.47;56.47;101924.66;5049188;28;20036;-84
2021/04/21 06:46:23;;;;;;;49.00;28.80;;;;;;;12.52;57.05;101925.50;5049392;28;20029;-83
2021/04/21 06:48:55;;;;;;;43.78;27.73;;;;;;;12.59;56.37;101927.19;5047702;28;20033;-88
2021/04/21 06:51:23;;;;;;;52.97;30.37;;;;;;;12.65;56.83;101928.00;5047929;28;20116;-86
2021/04/21 06:53:52;;;;;;;50.22;28.63;;;;;;;12.73;56.68;101931.47;5048871;28;20083;-85
2021/04/21 06:56:27;;;;;;;54.53;29.88;;;;;;;12.81;57.09;101934.94;5047625;28;20056;-87
2021/04/21 06:58:53;;;;;;;49.60;28.70;;;;;;;12.88;56.44;101935.72;5048239;28;20022;-91
2021/04/21 07:01:28;;;;;;;51.00;28.90;;;;;;;12.97;56.63;101934.75;5048959;28;20083;-88
2021/04/21 07:04:16;;;;;;;47.03;29.33;;;;;;;12.99;56.83;101933.81;5049925;28;20523;-85
2021/04/21 07:06:43;;;;;;;48.08;29.50;;;;;;;13.11;56.48;101944.31;5047593;28;20033;-87
2021/04/21 07:09:25;;;;;;;48.28;30.65;;;;;;;13.26;56.12;101939.69;5047256;28;20061;-86
2021/04/21 07:12:01;;;;;;;50.95;30.70;;;;;;;13.32;56.93;101936.94;5048538;28;20488;-86
2021/04/21 07:14:31;;;;;;;50.28;31.70;;;;;;;13.34;56.30;101940.44;5048404;28;20116;-86
2021/04/21 07:16:58;;;;;;;51.25;32.20;;;;;;;13.36;56.61;101945.78;5048696;28;20033;-81
2021/04/21 07:19:27;;;;;;;55.33;33.78;;;;;;;13.43;57.04;101950.13;5036643;28;20427;-82
2021/04/21 07:21:54;;;;;;;54.35;33.67;;;;;;;13.47;57.43;101949.19;5046423;28;20443;-84
2021/04/21 07:24:29;;;;;;;52.80;34.15;;;;;;;13.62;57.00;101952.50;5047944;28;20018;-85
2021/04/21 07:26:57;;;;;;;54.17;35.97;;;;;;;13.59;57.36;101950.78;5045792;28;20435;-83
2021/04/21 07:29:26;;;;;;;53.97;34.47;;;;;;;13.67;56.90;101953.31;5047710;28;20447;-82
2021/04/21 07:31:53;;;;;;;50.85;31.48;;;;;;;13.72;57.17;101955.03;5038471;28;20033;-79
2021/04/21 07:34:30;;;;;;;56.88;32.97;;;;;;;13.76;56.93;101953.19;5036286;28;20052;-83
2021/04/21 07:37:01;;;;;;;48.72;30.33;;;;;;;13.82;56.51;101954.88;5033239;28;20048;-90
2021/04/21 07:39:37;;;;;;;51.78;31.55;;;;;;;13.89;56.60;101965.44;5037837;28;20032;-82
2021/04/21 07:42:21;;;;;;;52.05;33.15;;;;;;;13.96;56.59;101958.22;5039242;28;20048;-83
2021/04/21 07:44:51;;;;;;;52.25;29.98;;;;;;;14.03;56.43;101970.53;5028422;28;20535;-82
2021/04/21 07:47:19;;;;;;;46.08;27.55;;;;;;;14.15;55.54;101972.09;5024026;28;20029;-80
2021/04/21 07:50:02;;;;;;;46.55;28.58;;;;;;;14.33;55.10;101973.56;5026727;28;20030;-85
2021/04/21 07:52:31;;;;;;;43.50;30.35;;;;;;;14.29;55.51;101974.50;5033267;28;20033;-81
2021/04/21 07:55:20;;;;;;;52.95;32.35;;;;;;;14.30;55.35;101978.94;5023601;28;20022;-82
2021/04/21 07:57:59;;;;;;;47.85;30.92;;;;;;;14.39;55.27;101986.81;5034058;28;20032;-83
2021/04/21 08:00:30;;;;;;;50.17;31.10;;;;;;;14.45;55.46;101988.47;5031118;28;20712;-82
2021/04/21 08:02:57;;;;;;;50.90;33.05;;;;;;;14.52;55.34;101989.25;5033164;28;20033;-82
2021/04/21 08:05:23;;;;;;;50.75;32.55;;;;;;;14.59;55.38;101987.34;5031689;28;20843;-82
2021/04/21 08:08:04;;;;;;;48.95;32.22;;;;;;;14.71;54.91;101992.47;5032938;28;20029;-82
2021/04/21 08:10:34;;;;;;;52.40;33.35;;;;;;;14.68;55.17;101993.41;5032887;28;20040;-82
2021/04/21 08:13:01;;;;;;;51.72;31.65;;;;;;;14.76;55.04;101995.94;5025996;28;20025;-82
2021/04/21 08:15:30;;;;;;;49.88;31.65;;;;;;;14.78;55.36;101998.56;5029567;28;20469;-79
2021/04/21 08:18:00;;;;;;;48.25;33.30;;;;;;;14.93;55.15;101997.38;5033421;28;20763;-80
2021/04/21 08:20:30;;;;;;;51.88;33.28;;;;;;;14.96;55.09;101992.00;5033248;28;20440;-90
2021/04/21 08:22:59;;;;;;;49.08;34.45;;;;;;;15.08;55.05;101996.19;5033582;28;20025;-85
2021/04/21 08:25:26;;;;;;;47.88;32.70;;;;;;;15.25;54.58;101993.19;5034130;28;20494;-82
2021/04/21 08:27:52;;;;;;;54.70;32.45;;;;;;;15.41;54.68;101999.09;5033824;28;20056;-84
2021/04/21 08:30:19;;;;;;;49.38;31.60;;;;;;;15.55;54.46;102006.78;5019032;28;20047;-79
2021/04/21 08:32:45;;;;;;;48.55;31.20;;;;;;;15.58;54.26;102001.41;5016023;28;20044;-83
2021/04/21 08:35:13;;;;;;;47.75;31.70;;;;;;;15.63;54.00;102007.50;5021122;28;20492;-87
2021/04/21 08:37:41;;;;;;;50.60;31.10;;;;;;;15.74;53.75;102008.13;5023473;28;20484;-82
2021/04/21 08:40:09;;;;;;;49.35;31.45;;;;;;;15.67;53.70;102002.03;5022767;28;20096;-77
2021/04/21 08:42:42;;;;;;;48.92;28.80;;;;;;;15.89;53.17;102006.03;5032637;28;20052;-84
2021/04/21 08:45:10;;;;;;;45.60;28.58;;;;;;;15.96;53.14;102016.56;5034104;28;20030;-82
2021/04/21 08:47:40;;;;;;;46.08;27.95;;;;;;;16.13;52.99;102018.81;5030808;28;20094;-78
2021/04/21 08:50:09;;;;;;;46.97;29.20;;;;;;;16.16;52.09;102016.09;5025833;28;20022;-84
2021/04/21 08:52:49;;;;;;;47.95;27.90;;;;;;;16.31;51.47;102019.28;5033004;28;20098;-83
2021/04/21 08:55:19;;;;;;;47.42;28.67;;;;;;;16.37;51.38;102023.59;5029834;28;20061;-85
2021/04/21 08:57:47;;;;;;;47.55;27.17;;;;;;;16.53;51.26;102016.94;5029890;28;20103;-90
2021/04/21 09:00:16;;;;;;;43.22;24.83;;;;;;;16.57;50.51;102020.41;5031996;28;20116;-87
2021/04/21 09:02:43;;;;;;;45.17;26.17;;;;;;;16.67;50.19;102019.22;5033063;28;20030;-92
2021/04/21 09:05:11;;;;;;;39.05;24.10;;;;;;;16.78;50.04;102025.16;5031331;28;20026;-87
2021/04/21 09:07:38;;;;;;;49.78;27.25;;;;;;;16.79;49.71;102026.94;5028541;28;20056;-89
2021/04/21 09:10:18;;;;;;;41.97;24.73;;;;;;;17.02;49.37;102028.13;5030388;28;20505;-86
2021/04/21 09:12:45;;;;;;;41.08;23.73;;;;;;;17.00;49.37;102026.41;5030817;28;20672;-88
2021/04/21 09:15:13;;;;;;;39.35;24.58;;;;;;;17.04;48.88;102031.66;5027438;28;20029;-87
2021/04/21 09:17:50;;;;;;;39.65;23.73;;;;;;;17.12;48.72;102034.09;5032075;28;20091;-89
2021/04/21 09:20:18;;;;;;;41.22;23.75;;;;;;;17.04;48.83;102042.34;5032352;28;20018;-82
2021/04/21 09:23:14;;;;;;;41.38;23.48;;;;;;;17.04;48.35;102042.34;5031016;28;20029;-89
2021/04/21 09:25:49;;;;;;;37.28;22.15;;;;;;;17.10;48.77;102052.91;5030854;28;20495;-87
2021/04/21 09:28:23;;;;;;;40.05;24.65;;;;;;;16.81;49.13;102048.31;5024476;28;20029;-89
2021/04/21 09:33:47;;;;;;;37.40;23.88;;;;;;;16.71;49.92;102058.41;5120470;27;20397;-88
2021/04/21 09:36:33;;;;;;;36.72;21.58;;;;;;;16.93;49.37;102050.66;5128575;28;20030;-91
2021/04/21 09:39:12;;;;;;;30.50;19.52;;;;;;;16.86;49.67;102061.56;5130165;28;20096;-88
2021/04/21 09:41:44;;;;;;;31.48;19.35;;;;;;;16.90;49.58;102060.59;5120118;28;20115;-85
2021/04/21 09:44:12;;;;;;;;;;;;;;;16.95;48.63;102069.41;5122501;28;20394;-88
2021/04/21 09:46:40;;;;;;;30.80;20.50;;;;;;;16.80;48.76;102065.31;5126883;28;19947;-89
2021/04/21 09:49:31;;;;;;;37.00;19.98;;;;;;;16.78;48.83;102073.34;5119829;28;20023;-88
2021/04/21 09:51:59;;;;;;;32.85;20.48;;;;;;;16.76;48.93;102066.28;5126348;28;20031;-86
2021/04/21 09:54:31;;;;;;;32.65;21.17;;;;;;;16.94;49.41;102068.50;5121993;28;20382;-84
2021/04/21 09:57:05;;;;;;;;;;;;;;;16.93;49.51;102074.75;5116988;28;20032;-84
2021/04/21 09:59:31;;;;;;;41.28;24.48;;;;;;;16.77;49.62;102071.63;5123353;28;19928;-82
2021/04/21 10:01:57;;;;;;;39.72;23.65;;;;;;;16.73;49.50;102074.41;5122532;28;20378;-86
2021/04/21 10:04:26;;;;;;;38.22;23.83;;;;;;;16.73;49.16;102074.41;5119447;28;20436;-91
2021/04/21 10:06:58;;;;;;;39.75;24.48;;;;;;;16.79;49.65;102072.44;5126888;28;20118;-90
2021/04/21 10:09:35;;;;;;;42.57;23.80;;;;;;;16.90;49.41;102066.81;5126063;28;20054;-89
2021/04/21 10:15:31;;;;;;;39.70;23.63;;;;;;;17.26;49.88;102079.25;5032366;28;20400;-87
2021/04/21 10:17:57;;;;;;;36.88;23.63;;;;;;;17.13;49.76;102070.66;5013854;28;20053;-88
2021/04/21 10:20:24;;;;;;;38.55;22.92;;;;;;;17.31;49.25;102063.94;5012591;28;20078;-91
2021/04/21 10:22:52;;;;;;;37.05;22.85;;;;;;;17.36;49.19;102070.03;5010477;28;20049;-87
2021/04/21 10:25:18;;;;;;;34.88;23.58;;;;;;;17.31;49.01;102066.59;5012595;28;20041;-89
2021/04/21 10:27:45;;;;;;;37.13;22.15;;;;;;;17.33;48.62;102070.09;5012611;28;20042;-87
2021/04/21 10:30:12;;;;;;;35.28;23.40;;;;;;;17.33;48.73;102078.13;4994323;28;20032;-87
2021/04/21 10:32:38;;;;;;;40.35;22.50;;;;;;;17.22;49.15;102080.25;4983077;28;20485;-88
2021/04/21 10:35:06;;;;;;;38.33;24.15;;;;;;;17.27;49.06;102075.63;5011851;28;20482;-88
2021/04/21 10:37:35;;;;;;;34.15;22.67;;;;;;;17.20;48.97;102082.09;5021811;28;20129;-90
2021/04/21 10:40:03;;;;;;;32.50;21.02;;;;;;;17.17;48.79;102079.50;4995083;28;20066;-90
2021/04/21 10:42:45;;;;;;;33.70;20.80;;;;;;;16.97;49.12;102083.59;5019020;28;20033;-89
2021/04/21 10:45:15;;;;;;;37.03;21.77;;;;;;;17.05;48.59;102092.31;5010462;28;20025;-87
2021/04/21 10:47:46;;;;;;;42.17;21.20;;;;;;;16.89;48.95;102093.63;5017453;28;20539;-89
2021/04/21 10:50:35;;;;;;;33.65;20.67;;;;;;;16.78;49.23;102105.47;5013550;28;20786;-88
2021/04/21 10:53:03;;;;;;;28.20;18.77;;;;;;;16.69;49.87;102100.34;5014512;28;20034;-90
2021/04/21 10:58:11;;;;;;;23.42;17.35;;;;;;;16.79;49.83;102112.59;5066876;28;20421;-86
2021/04/21 11:00:44;;;;;;;23.17;16.10;;;;;;;16.85;49.45;102111.56;5059863;28;20064;-86
2021/04/21 11:03:15;;;;;;;18.63;13.07;;;;;;;16.88;48.31;102105.25;5057419;28;20037;-84
2021/04/21 11:05:44;;;;;;;17.33;8.32;;;;;;;16.69;48.10;102105.72;5055081;28;20087;-85
2021/04/21 11:11:02;;;;;;;12.05;6.20;;;;;;;16.85;47.06;102110.66;5076921;27;20418;-83
2021/04/21 11:13:39;;;;;;;10.57;4.68;;;;;;;17.17;46.51;102112.53;5061674;28;20481;-84
2021/04/21 11:22:19;;;;;;;10.13;3.97;;;;;;;17.73;44.92;102111.81;5075133;27;20405;-86
2021/04/21 11:25:22;;;;;;;7.50;3.33;;;;;;;17.71;44.70;102102.94;5069727;28;20503;-86
2021/04/21 11:27:52;;;;;;;11.25;6.22;;;;;;;17.79;43.93;102106.28;5064247;28;20032;-89
2021/04/21 11:33:52;;;;;;;4.40;2.53;;;;;;;17.87;43.89;102111.41;5080112;27;20409;-84
2021/04/21 11:50:40;;;;;;;8.02;3.03;;;;;;;18.01;43.16;102111.00;5104879;27;20359;-77
2021/04/21 12:01:11;;;;;;;7.28;2.08;;;;;;;18.64;41.13;102099.16;5074456;28;20432;-85
2021/04/21 12:06:21;;;;;;;4.63;1.48;;;;;;;18.85;40.35;102073.38;5072271;28;20397;-86
2021/04/21 12:08:50;;;;;;;7.03;1.88;;;;;;;18.87;40.33;102093.88;5062764;28;20056;-86
2021/04/21 12:11:28;;;;;;;7.43;2.10;;;;;;;19.16;40.79;102080.38;5062958;28;20598;-85
2021/04/21 12:13:54;;;;;;;7.10;2.10;;;;;;;19.36;40.37;102095.75;5061429;28;20075;-85
2021/04/21 12:16:25;;;;;;;5.38;1.98;;;;;;;19.27;39.12;102093.41;5066640;28;20379;-86
2021/04/21 12:18:53;;;;;;;7.50;2.28;;;;;;;19.23;38.66;102090.84;5068863;28;20021;-86
2021/04/21 12:24:09;;;;;;;9.27;2.38;;;;;;;19.51;38.50;102087.09;5072944;28;21197;-85
2021/04/21 12:26:38;;;;;;;6.07;2.03;;;;;;;19.65;39.19;102080.34;5052773;28;20048;-83
2021/04/21 12:29:11;;;;;;;10.95;1.85;;;;;;;19.65;38.79;102088.41;5049041;28;20041;-83
2021/04/21 12:31:39;;;;;;;7.35;2.28;;;;;;;19.71;39.24;102093.53;5048990;28;20104;-89
2021/04/21 12:34:11;;;;;;;6.97;1.65;;;;;;;19.79;37.59;102094.13;5048573;28;20055;-85
2021/04/21 12:36:38;;;;;;;6.13;1.75;;;;;;;19.95;38.04;102091.75;5048992;28;20029;-85
2021/04/21 12:39:22;;;;;;;11.82;1.92;;;;;;;19.81;37.01;102084.19;5047394;28;20499;-84
2021/04/21 12:42:01;;;;;;;10.65;1.98;;;;;;;19.93;36.53;102087.38;5048685;28;20029;-85
2021/04/21 12:44:31;;;;;;;11.75;2.05;;;;;;;20.02;37.19;102095.06;5045935;28;20149;-83
2021/04/21 12:49:48;;;;;;;6.20;1.83;;;;;;;19.77;37.14;102090.63;5130471;27;20575;-84
2021/04/21 12:52:17;;;;;;;4.38;1.77;;;;;;;20.20;36.88;102101.53;5109584;28;20024;-84
2021/04/21 12:54:47;;;;;;;8.75;2.40;;;;;;;20.19;36.40;102089.88;5107270;28;20111;-85
2021/04/21 12:57:16;;;;;;;8.38;1.80;;;;;;;20.33;36.70;102091.13;5097842;28;20128;-87
2021/04/21 12:59:46;;;;;;;10.80;2.40;;;;;;;20.46;36.44;102102.25;5092436;28;20077;-87
2021/04/21 13:02:16;;;;;;;8.63;2.72;;;;;;;20.45;36.15;102101.38;5089625;28;20468;-87
2021/04/21 13:04:45;;;;;;;7.85;2.13;;;;;;;20.51;35.78;102100.25;5094378;28;20035;-87
2021/04/21 13:10:06;;;;;;;9.45;2.42;;;;;;;20.47;35.51;102094.13;5088885;27;1566841;-87
2021/04/21 13:12:32;;;;;;;8.82;2.70;;;;;;;20.45;36.31;102095.13;5130702;27;20088;-87
2021/04/21 13:15:09;;;;;;;11.57;3.20;;;;;;;20.58;35.60;102100.88;5130366;27;20020;-84
2021/04/21 13:17:56;;;;;;;10.30;2.30;;;;;;;20.69;35.05;102095.91;5111094;28;20074;-88
2021/04/21 13:23:26;;;;;;;7.15;2.72;;;;;;;20.32;34.63;102098.31;5097095;27;20380;-88
2021/04/21 13:28:49;;;;;;;11.75;2.58;;;;;;;20.23;34.31;102096.00;5119632;27;872180;-86
2021/04/21 13:31:18;;;;;;;11.73;2.15;;;;;;;20.28;34.72;102096.69;5125504;27;20135;-86
2021/04/21 13:33:46;;;;;;;8.40;2.15;;;;;;;20.44;34.66;102096.06;5120442;28;20020;-86
2021/04/21 13:36:15;;;;;;;8.88;2.05;;;;;;;20.60;35.06;102099.88;5123398;27;20027;-87
2021/04/21 13:38:43;;;;;;;9.52;2.30;;;;;;;20.63;35.18;102098.84;5107474;28;20074;-86
2021/04/21 13:41:11;;;;;;;9.73;2.10;;;;;;;20.73;34.59;102096.69;5107664;28;20024;-80
2021/04/21 13:43:38;;;;;;;14.00;2.88;;;;;;;20.71;34.42;102101.22;5107495;27;20532;-86
2021/04/21 13:46:04;;;;;;;7.20;2.50;;;;;;;20.57;34.52;102101.81;5108769;28;20024;-86
2021/04/21 13:48:33;;;;;;;8.02;2.58;;;;;;;20.79;35.24;102105.38;5111353;28;20047;-87
2021/04/21 13:51:01;;;;;;;9.15;2.63;;;;;;;20.91;35.20;102101.28;5107542;27;20028;-90
2021/04/21 13:53:27;;;;;;;7.70;2.17;;;;;;;20.84;34.35;102097.09;5107067;27;20020;-90
2021/04/21 13:55:54;;;;;;;9.52;2.58;;;;;;;21.07;34.84;102095.19;5103417;28;20138;-89
2021/04/21 13:58:21;;;;;;;10.50;2.42;;;;;;;21.04;34.60;102100.75;5106844;28;20035;-85
2021/04/21 14:00:47;;;;;;;9.40;2.50;;;;;;;21.21;34.88;102102.66;5108045;28;20035;-89
2021/04/21 14:03:14;;;;;;;8.40;2.20;;;;;;;21.30;34.53;102099.56;5108269;28;20486;-91
2021/04/21 14:05:40;;;;;;;15.35;3.17;;;;;;;21.17;34.32;102094.72;5105963;28;20032;-90
2021/04/21 14:08:07;;;;;;;12.38;2.92;;;;;;;21.20;34.53;102093.72;5108708;28;20027;-88